METAR Data
IDs: Format: Raw Decoded Include TAF

Data at: 1529 UTC 03 Dec 2021

KPDT 031453Z 04003KT 10SM CLR M01/M02 A3026 RMK AO2 SLP249 T10061017 53009
KPDT 031353Z 16007KT 10SM CLR 00/M01 A3023 RMK AO2 SLP238 T00001011
KPDT 031253Z AUTO 09004KT 10SM CLR 01/M01 A3023 RMK AO2 SLP239 T00111006
KPDT 031153Z AUTO 00000KT 10SM CLR 03/01 A3023 RMK AO2 SLP237 T00280006 10078 20011 58003
KPDT 031053Z AUTO 12004KT 10SM CLR 03/01 A3024 RMK AO2 SLP240 T00330006
KPDT 030953Z AUTO 00000KT 10SM CLR 04/01 A3026 RMK AO2 SLP243 T00390011
KPDT 030853Z AUTO 13003KT 10SM CLR 05/01 A3024 RMK AO2 SLP236 T00500006 58002
KPDT 030753Z AUTO 00000KT 10SM CLR 07/01 A3024 RMK AO2 SLP237 T00670006 401440056
KPDT 030653Z AUTO 21008KT 10SM CLR 07/02 A3024 RMK AO2 SLP238 T00670017
KPDT 030553Z AUTO 15007KT 10SM CLR 07/02 A3024 RMK AO2 SLP238 T00670017 10106 20067 51003
KPDT 030453Z AUTO 23008KT 10SM BKN045 08/01 A3024 RMK AO2 WSHFT 0408 SLP237 T00780011
KPDT 030428Z AUTO 24012KT 10SM CLR 07/01 A3024 RMK AO2 WSHFT 0408 T00720006
KPDT 030353Z 20009KT 10SM FEW048 07/02 A3024 RMK AO2 SLP239 T00720017
KPDT 030253Z 20009KT 10SM BKN042 08/02 A3023 RMK AO2 SLP236 T00780022 51014
KPDT 030153Z 23012KT 10SM FEW040 09/01 A3022 RMK AO2 SLP232 T00890011
KPDT 030053Z 26011KT 10SM CLR 08/03 A3021 RMK AO2 SLP227 T00830028
KPDT 022353Z 27017KT 10SM CLR 11/04 A3019 RMK AO2 SLP220 T01060039 10144 20106 53007
KPDT 022253Z 29014KT 10SM CLR 13/06 A3018 RMK AO2 SLP214 T01280056 $
KPDT 022153Z 27010KT 10SM CLR 14/06 A3016 RMK AO2 SLP208 T01440056
KPDT 022053Z 26015KT 10SM CLR 14/05 A3017 RMK AO2 PK WND 24027/1959 SLP210 T01440050 56008
KPDT 021953Z 25018G27KT 10SM FEW095 13/01 A3018 RMK AO2 PK WND 25027/1949 SLP213 T01330006
KPDT 021853Z 25015G23KT 10SM CLR 13/04 A3018 RMK AO2 PK WND 26028/1809 SLP216 T01330039
KPDT 021753Z 24016KT 10SM CLR 13/06 A3019 RMK AO2 SLP219 T01280056 10128 20083 53022
KPDT 021653Z 26007KT 240V300 10SM BKN055 BKN085 12/06 A3017 RMK AO2 SLP212 T01220056
KPDT 021553Z 21013KT 10SM OVC090 12/06 A3014 RMK AO2 SLP202 T01170056
KPDT 021453Z 22012KT 10SM OVC080 11/06 A3013 RMK AO2 SLP195 T01110061 53010 $
KPDT 021353Z 25016KT 10SM OVC080 11/05 A3011 RMK AO2 SLP190 T01110050 $
KPDT 021253Z AUTO 28010KT 10SM CLR 11/05 A3010 RMK AO2 SLP185 T01060050 $
KPDT 021153Z AUTO 31008KT 10SM CLR 09/07 A3009 RMK AO2 SLP183 T00940067 10139 20094 53002 $
KPDT 021053Z AUTO 17007KT 10SM OVC080 10/08 A3009 RMK AO2 SLP181 T01000078 $
KPDT 020953Z AUTO 16009KT 10SM BKN075 10/08 A3009 RMK AO2 SLP181 T01000078 $
KPDT 020853Z AUTO 20003KT 10SM OVC075 12/09 A3009 RMK AO2 SLP179 T01220089 56006 $
KPDT 020753Z AUTO 00000KT 10SM BKN080 12/08 A3009 RMK AO2 SLP182 T01220083 402000089 $
KPDT 020653Z AUTO 15004KT 10SM SCT080 11/08 A3009 RMK AO2 SLP183 T01110083 $
KPDT 020553Z AUTO 18006KT 10SM OVC080 12/09 A3010 RMK AO2 SLP187 T01220089 10178 20106 53002 $
KPDT 020453Z AUTO 10SM FEW080 11/09 A3010 RMK AO2 SLP187 T01060089 $
KPDT 020353Z AUTO 15007KT 10SM CLR 12/09 A3009 RMK AO2 SLP184 T01220089 $